LOWGLGSR

Guest
Details From LOWG - Graz Thalerhof
To LGSR - Santorini
Flight Number -
Tags Generated
Created
Modified
Stats Distance 778 nm / 1,440 km
Max Altitude 0 ft / 0 m
Waypoints 5
Social Downloads 0
Likes 0
Share VATSIM

Download

Looking for another format? Having issues loading an existing format? Contact us
Advertisement - Login to hide

Notes

Generated

Route

LOWG BEDAK LOPOS SNI88 LGSR

ID Type Via Altitude Latitude Longitude Leg Dist Tot Dist Heading (true) Name
O LOWG APT - 0 ft / 0 m 46.99065˚ 15.44259˚ - 0 nm - Graz Thalerhof
BEDAK FIX - 0 ft / 0 m 43.23972˚ 19.63836˚ 286 nm 286 nm 140° / 143° -
LOPOS FIX - 0 ft / 0 m 40.29083˚ 22.50028˚ 218 nm 505 nm 143° / 145° -
SNI88 FIX - 0 ft / 0 m 36.40829˚ 25.47440˚ 271 nm 777 nm 148° / 150° -
O LGSR APT - 0 ft / 0 m 36.40811˚ 25.47509˚ 0 nm 777 nm 108° / 108° -

Altitude Profile

Advertisement - Login to hide

Weather


0- 5 10 15 20 25 30 35+ Temperature / ° C

Clouds and Precipitation
Forecast for 2017-12-18 00:00 UTC. Updated 38 minutes ago

Ground ~20,000 ft ~40,000 ft Winds

LOWG

Details ICAO LOWG (GRZ)
Name Graz Thalerhof
Region Austria
Timezone Europe/Vienna (UTC+1.0)
Stats Elevation 1,115 ft / 340 m (AMSL)
Location 46.990308° 15.439665°
Runways 3
Magnetic Variation 3.922° E

METAR

LOWG 172120Z AUTO VRB01KT 6000 2500S BR BKN150 M04/M04 Q1022 TEMPO 1200 FZBCFG

Decode

TAF

TAF TAF LOWG 171715Z 1718/1818 VRB02KT 9999 FEW050 SCT100 TX03/1812Z TNM05/1805Z TEMPO 1718/1809 4000 BR PROB40 TEMPO 1722/1808 1200 FZBCFG PROB30 TEMPO 1800/1807 0200 FZFG VV001

Decode

Departure Runways

ID Width Length Bearing (true) Bearing (mag) Surface Threshold Offset Overrun Length
17C 148 ft / 45 m 9,852 ft / 3,003 m 169.37° 165.45° Asphalt 853 ft / 260 m 98 ft / 30 m
17L 98 ft / 30 m 2,102 ft / 641 m 169.41° 165.49° Grass 0 ft / 0 m 0 ft / 0 m
17R 82 ft / 25 m 2,496 ft / 761 m 169.40° 165.48° Grass 492 ft / 150 m 0 ft / 0 m
35C 148 ft / 45 m 9,852 ft / 3,003 m 349.37° 345.45° Asphalt 0 ft / 0 m 0 ft / 0 m
35L 82 ft / 25 m 2,496 ft / 761 m 349.40° 345.48° Grass 0 ft / 0 m 0 ft / 0 m
35R 98 ft / 30 m 2,102 ft / 641 m 349.41° 345.49° Grass 0 ft / 0 m 0 ft / 0 m

LGSR

Details ICAO LGSR (JTR)
Name SANTORINI
Region Greece
Timezone Europe/Athens (UTC+2.0)
Stats Elevation 127 ft / 39 m (AMSL)
Location 36.398949° 25.478507°
Runways 2
Magnetic Variation 4.513° E

METAR

LGSR 172120Z AUTO 26016KT //// -RA ////// 16/09 Q1016 RE//

Decode

TAF

TAF LGSR 171700Z 1718/1818 26012G22KT 9999 FEW020 SCT030 PROB30 TEMPO 1806/1818 7000 RA FEW018 BKN025

Decode

Destination Runways

ID Width Length Bearing (true) Bearing (mag) Surface Threshold Offset Overrun Length
16L 98 ft / 30 m 6,978 ft / 2,127 m 159.53° 155.02° Asphalt 0 ft / 0 m 909 ft / 277 m
16R 98 ft / 30 m 6,969 ft / 2,124 m 159.56° 155.05° Asphalt 0 ft / 0 m 420 ft / 128 m
34L 98 ft / 30 m 6,969 ft / 2,124 m 339.56° 335.05° Asphalt 0 ft / 0 m 0 ft / 0 m
34R 98 ft / 30 m 6,978 ft / 2,127 m 339.54° 335.03° Asphalt 0 ft / 0 m 0 ft / 0 m

Popular Alternatives